Dr. Herbster Some Projects / Demos Assorted Weather Resources
Wx Aware ERAU Graphics Severe Wx Surface Wx Upper Air ERAU RADAR NWS RADAR Lightning Local Satellite US Satellite More Satellite External Links Wx University Last loaded:

Here are a few images/products that I either use regularly or have been developing


Surface Analysis from WPC

WPC SFC Analysis

Today's Forecast

NOAA Forecast Map
WxSTEM Camera

Animation

Text listing Whole Year listing
Wx Buoy ~20 nm East of Cape Canaveral
Wx Buoy ~120 nm East of Cape Canaveral
KDAB METAR
Data query at 29 Mar 2017 at 09:05Z
KDAB 290853Z 00000KT 10SM CLR 16/14 A2999 RMK AO2 SLP156 T01610144
   56010=
KDAB TAF
Data query at 29 Mar 2017 at 09:05Z

KDAB 290520Z 2906/3006 00000KT P6SM SKC
     FM291800 09008KT P6SM FEW045
     FM300000 VRB02KT P6SM FEW045=